createdAt,value
2022-11-15T00:01:42.604Z,14.00
2022-11-15T00:04:29.779Z,14.47
2022-11-15T00:07:40.293Z,14.97
2022-11-15T00:10:23.840Z,13.83
2022-11-15T00:13:13.340Z,13.83
2022-11-15T00:16:01.218Z,13.90
2022-11-15T00:18:50.961Z,14.00
2022-11-15T00:21:38.938Z,13.17
2022-11-15T00:24:26.375Z,13.03
2022-11-15T00:27:13.668Z,12.90
2022-11-15T00:30:01.338Z,12.63
2022-11-15T00:32:48.309Z,11.87
2022-11-15T00:35:38.828Z,12.60
2022-11-15T00:38:26.077Z,11.90
2022-11-15T00:41:12.989Z,12.43
2022-11-15T00:44:00.124Z,12.63
2022-11-15T00:46:47.812Z,11.47
2022-11-15T00:49:34.951Z,11.67
2022-11-15T00:52:23.855Z,12.20
2022-11-15T00:55:16.971Z,11.50
2022-11-15T00:58:04.747Z,11.63
2022-11-15T01:00:51.973Z,11.97
2022-11-15T01:03:51.006Z,11.90
2022-11-15T01:06:47.779Z,12.27
2022-11-15T01:09:35.946Z,12.13
2022-11-15T01:12:23.414Z,11.60
2022-11-15T01:15:11.221Z,12.03
2022-11-15T01:18:09.642Z,10.93
2022-11-15T01:20:56.905Z,12.43
2022-11-15T01:23:44.369Z,11.67
2022-11-15T01:26:32.423Z,11.63
2022-11-15T01:29:19.350Z,11.70
2022-11-15T01:32:06.652Z,11.47
2022-11-15T01:34:54.160Z,11.90
2022-11-15T01:37:41.080Z,11.43
2022-11-15T01:40:28.234Z,12.10
2022-11-15T01:43:29.162Z,11.10
2022-11-15T01:46:32.716Z,11.60
2022-11-15T01:49:25.474Z,12.03
2022-11-15T01:52:16.445Z,11.27
2022-11-15T01:55:11.943Z,11.00
2022-11-15T01:58:03.233Z,11.17
2022-11-15T02:00:52.537Z,11.53
2022-11-15T02:03:48.798Z,10.23
2022-11-15T02:06:37.969Z,10.50
2022-11-15T02:09:25.613Z,9.50
2022-11-15T02:12:16.630Z,9.97
2022-11-15T02:15:05.930Z,10.10
2022-11-15T02:18:18.643Z,9.60
2022-11-15T02:21:22.183Z,9.53
2022-11-15T02:24:35.223Z,9.37
2022-11-15T02:27:52.662Z,9.77
2022-11-15T02:30:46.835Z,9.60
2022-11-15T02:33:44.570Z,8.90
2022-11-15T02:36:43.775Z,9.77
2022-11-15T02:39:41.578Z,10.17
2022-11-15T02:42:50.226Z,9.30
2022-11-15T02:45:45.569Z,9.07
2022-11-15T02:48:34.408Z,8.13
2022-11-15T02:51:22.518Z,8.70
2022-11-15T02:54:12.929Z,8.60
2022-11-15T02:57:09.004Z,8.53
2022-11-15T03:00:09.662Z,7.93
2022-11-15T03:03:52.270Z,8.53
2022-11-15T03:06:50.425Z,7.83
2022-11-15T03:09:48.851Z,8.53
2022-11-15T03:12:43.663Z,8.03
2022-11-15T03:15:34.571Z,7.90
2022-11-15T03:18:29.156Z,7.90
2022-11-15T03:21:33.132Z,7.67
2022-11-15T03:24:26.269Z,7.90
2022-11-15T03:27:19.685Z,7.47
2022-11-15T03:30:11.052Z,7.00
2022-11-15T03:33:00.881Z,7.53
2022-11-15T03:35:51.704Z,7.50
2022-11-15T03:38:40.874Z,7.63
2022-11-15T03:41:37.533Z,6.70
2022-11-15T03:44:38.833Z,6.33
2022-11-15T03:47:34.642Z,7.80
2022-11-15T03:50:24.729Z,6.80
2022-11-15T03:53:14.244Z,5.97
2022-11-15T03:56:01.685Z,6.20
2022-11-15T03:58:49.414Z,6.17
2022-11-15T04:01:38.200Z,6.40
2022-11-15T04:04:25.198Z,6.40
2022-11-15T04:07:12.612Z,7.10
2022-11-15T04:10:04.695Z,7.23
2022-11-15T04:12:51.792Z,7.40
2022-11-15T04:15:39.353Z,7.40
2022-11-15T04:18:26.764Z,9.10
2022-11-15T04:21:31.926Z,9.50
2022-11-15T04:24:19.242Z,9.17
2022-11-15T04:27:07.468Z,9.93
2022-11-15T04:29:54.724Z,10.57
2022-11-15T04:32:41.791Z,10.17
2022-11-15T04:35:28.891Z,10.00
2022-11-15T04:38:15.980Z,9.73
2022-11-15T04:41:02.888Z,9.43
2022-11-15T04:43:51.059Z,9.63
2022-11-15T04:46:38.511Z,9.23
2022-11-15T04:49:25.314Z,10.43
2022-11-15T04:52:12.609Z,9.90
2022-11-15T04:55:03.583Z,10.23
2022-11-15T04:58:01.710Z,9.97
2022-11-15T05:00:49.922Z,9.30
2022-11-15T05:03:54.803Z,8.83
2022-11-15T05:06:42.221Z,8.07
2022-11-15T05:09:29.457Z,9.10
2022-11-15T05:12:16.080Z,8.20
2022-11-15T05:15:03.321Z,8.23
2022-11-15T05:17:51.339Z,8.40
2022-11-15T05:20:38.275Z,7.57
2022-11-15T05:23:26.430Z,8.33
2022-11-15T05:26:13.965Z,8.37
2022-11-15T05:29:01.863Z,8.07
2022-11-15T05:31:49.031Z,7.80
2022-11-15T05:34:37.112Z,7.93
2022-11-15T05:37:24.388Z,7.73
2022-11-15T05:40:11.739Z,7.60
2022-11-15T05:42:59.678Z,7.73
2022-11-15T05:45:47.196Z,7.83
2022-11-15T05:48:36.297Z,8.17
2022-11-15T05:51:25.363Z,8.93
2022-11-15T05:54:13.271Z,7.27
2022-11-15T05:57:00.926Z,7.33
2022-11-15T05:59:48.224Z,7.20
2022-11-15T06:02:35.226Z,8.20
2022-11-15T06:05:22.837Z,7.10
2022-11-15T06:08:11.009Z,7.03
2022-11-15T06:10:57.632Z,7.43
2022-11-15T06:13:44.923Z,8.07
2022-11-15T06:16:32.051Z,10.80
2022-11-15T06:19:19.573Z,10.50
2022-11-15T06:22:06.519Z,9.57
2022-11-15T06:24:54.600Z,9.23
2022-11-15T06:27:41.765Z,8.73
2022-11-15T06:30:29.692Z,8.87
2022-11-15T06:33:16.671Z,8.53
2022-11-15T06:36:04.255Z,8.13
2022-11-15T06:38:52.078Z,9.10
2022-11-15T06:41:40.080Z,10.30
2022-11-15T06:44:27.060Z,11.67
2022-11-15T06:47:13.850Z,19.17
2022-11-15T06:50:00.960Z,15.67
2022-11-15T06:52:48.242Z,14.77
2022-11-15T06:55:35.525Z,16.33
2022-11-15T06:58:24.595Z,16.90
2022-11-15T07:01:14.188Z,15.17
2022-11-15T07:04:01.565Z,15.80
2022-11-15T07:06:49.360Z,14.30
2022-11-15T07:09:36.155Z,11.60
2022-11-15T07:12:23.399Z,10.43
2022-11-15T07:15:12.382Z,9.97
2022-11-15T07:18:03.071Z,9.90
2022-11-15T07:20:50.131Z,9.90
2022-11-15T07:23:39.773Z,9.33
2022-11-15T07:26:26.363Z,9.67
2022-11-15T07:29:13.550Z,10.13
2022-11-15T07:32:01.846Z,10.80
2022-11-15T07:34:48.908Z,10.73
2022-11-15T07:37:35.577Z,13.37
2022-11-15T07:40:22.911Z,16.97
2022-11-15T07:43:11.265Z,18.10
2022-11-15T07:45:59.577Z,28.03
2022-11-15T07:48:48.257Z,21.23
2022-11-15T07:51:35.405Z,22.83
2022-11-15T07:54:22.508Z,23.20
2022-11-15T07:57:11.665Z,27.80
2022-11-15T07:59:58.855Z,25.37
2022-11-15T08:02:45.963Z,26.63
2022-11-15T08:05:35.299Z,29.30
2022-11-15T08:08:22.643Z,28.77
2022-11-15T08:11:09.309Z,26.37
2022-11-15T08:13:56.567Z,25.63
2022-11-15T08:16:43.397Z,23.00
2022-11-15T08:19:30.089Z,22.97
2022-11-15T08:22:18.451Z,16.97
2022-11-15T08:25:06.270Z,16.13
2022-11-15T08:27:55.156Z,14.55
2022-11-15T08:30:46.445Z,15.07
2022-11-15T08:33:34.988Z,12.82
2022-11-15T08:36:22.882Z,8.20
2022-11-15T08:39:13.518Z,7.93
2022-11-15T08:42:00.622Z,7.90
2022-11-15T08:44:47.770Z,7.63
2022-11-15T08:47:34.994Z,7.65
2022-11-15T08:50:22.551Z,7.75
2022-11-15T08:53:10.465Z,6.90
2022-11-15T08:55:58.672Z,7.07
2022-11-15T08:58:45.759Z,7.28
2022-11-15T09:01:33.632Z,6.93
2022-11-15T09:04:20.774Z,7.50
2022-11-15T09:07:07.544Z,7.50
2022-11-15T09:09:54.553Z,7.18
2022-11-15T09:12:42.754Z,7.15
2022-11-15T09:15:29.651Z,7.80
2022-11-15T09:18:16.800Z,7.60
2022-11-15T09:21:04.609Z,7.70
2022-11-15T09:23:53.181Z,7.87
2022-11-15T09:26:40.294Z,7.93
2022-11-15T09:29:28.563Z,7.60
2022-11-15T09:32:15.530Z,6.70
2022-11-15T09:35:02.517Z,8.47
2022-11-15T09:37:54.952Z,8.70
2022-11-15T09:40:43.605Z,8.70
2022-11-15T09:43:44.886Z,8.30
2022-11-15T09:46:48.102Z,7.43
2022-11-15T09:49:25.826Z,7.80
2022-11-15T09:52:12.482Z,7.27
2022-11-15T09:54:56.100Z,7.20
2022-11-15T09:57:34.757Z,8.03
2022-11-15T10:03:15.381Z,8.37
2022-11-15T10:05:48.125Z,8.70
2022-11-15T10:08:50.048Z,8.20
2022-11-15T10:11:36.689Z,8.47
2022-11-15T10:14:14.050Z,7.77
2022-11-15T10:17:38.309Z,8.77
2022-11-15T10:20:21.855Z,8.53
2022-11-15T10:22:52.892Z,7.57
2022-11-15T10:25:25.709Z,7.90
2022-11-15T10:28:01.298Z,8.00
2022-11-15T10:30:35.808Z,7.33
2022-11-15T10:33:15.088Z,8.03
2022-11-15T10:35:44.940Z,6.30
2022-11-15T10:38:14.509Z,6.90
2022-11-15T10:40:44.754Z,5.97
2022-11-15T10:43:18.998Z,4.80
2022-11-15T10:45:49.745Z,5.80
2022-11-15T10:48:27.368Z,5.57
2022-11-15T10:50:58.396Z,5.73
2022-11-15T10:53:35.172Z,6.37
2022-11-15T10:56:09.118Z,6.50
2022-11-15T10:58:42.134Z,6.80
2022-11-15T11:01:21.086Z,7.83
2022-11-15T11:04:02.989Z,7.20
2022-11-15T11:06:47.846Z,7.30
2022-11-15T11:09:30.900Z,6.77
2022-11-15T11:11:59.361Z,6.23
2022-11-15T11:14:32.316Z,6.07
2022-11-15T11:17:15.246Z,5.43
2022-11-15T11:20:04.577Z,5.60
2022-11-15T11:22:44.381Z,4.70
2022-11-15T11:25:26.856Z,5.50
2022-11-15T11:28:12.353Z,5.33
2022-11-15T11:30:51.847Z,5.17
2022-11-15T11:33:24.299Z,5.50
2022-11-15T11:36:09.360Z,5.37
2022-11-15T11:39:00.052Z,6.03
2022-11-15T11:41:51.296Z,5.83
2022-11-15T11:44:40.185Z,5.60
2022-11-15T11:47:13.797Z,6.20
2022-11-15T11:49:50.138Z,6.40
2022-11-15T11:52:27.829Z,6.97
2022-11-15T11:55:13.843Z,6.50
2022-11-15T11:57:50.188Z,6.60
2022-11-15T12:00:23.390Z,6.63
2022-11-15T12:03:10.297Z,6.60
2022-11-15T12:05:43.958Z,6.60
2022-11-15T12:08:31.464Z,6.40
2022-11-15T12:11:14.410Z,5.97
2022-11-15T12:13:44.838Z,6.10
2022-11-15T12:16:19.063Z,5.75
2022-11-15T12:18:52.411Z,6.00
2022-11-15T12:21:28.884Z,6.20
2022-11-15T12:24:06.282Z,6.07
2022-11-15T12:26:42.319Z,6.53
2022-11-15T12:29:21.805Z,5.97
2022-11-15T12:31:57.797Z,6.05
2022-11-15T12:34:43.529Z,5.72
2022-11-15T12:37:56.194Z,5.97
2022-11-15T12:40:38.211Z,6.57
2022-11-15T12:43:44.618Z,6.40
2022-11-15T12:46:25.358Z,6.50
2022-11-15T12:48:59.266Z,5.97
2022-11-15T12:52:09.607Z,6.13
2022-11-15T12:55:32.268Z,5.75
2022-11-15T12:58:31.272Z,6.28
2022-11-15T13:01:01.179Z,6.20
2022-11-15T13:03:34.052Z,6.47
2022-11-15T13:06:32.322Z,6.15
2022-11-15T13:09:00.697Z,6.00
2022-11-15T13:11:48.652Z,6.50
2022-11-15T13:14:50.926Z,5.90
2022-11-15T13:17:34.829Z,6.25
2022-11-15T13:20:23.575Z,5.80
2022-11-15T13:22:55.770Z,5.50
2022-11-15T13:25:50.791Z,4.72
2022-11-15T13:28:32.411Z,5.20
2022-11-15T13:31:03.335Z,6.18
2022-11-15T13:33:37.471Z,6.00
2022-11-15T13:36:14.697Z,6.32
2022-11-15T13:38:44.156Z,5.72
2022-11-15T13:41:22.348Z,5.70
2022-11-15T13:43:52.449Z,5.80
2022-11-15T13:46:23.245Z,5.90
2022-11-15T13:48:57.592Z,6.10
2022-11-15T13:51:39.363Z,5.88
2022-11-15T13:54:21.161Z,6.20
2022-11-15T13:56:54.093Z,5.30
2022-11-15T13:59:27.166Z,5.55
2022-11-15T14:01:57.444Z,5.40
2022-11-15T14:04:31.193Z,5.07
2022-11-15T14:07:01.913Z,5.40
2022-11-15T14:09:42.140Z,5.68
2022-11-15T14:12:31.849Z,6.18
2022-11-15T14:15:03.400Z,6.35
2022-11-15T14:17:45.636Z,5.90
2022-11-15T14:20:31.660Z,6.20
2022-11-15T14:23:02.156Z,5.57
2022-11-15T14:25:32.187Z,6.00
2022-11-15T14:28:16.548Z,5.60
2022-11-15T14:30:51.055Z,6.20
2022-11-15T14:33:31.226Z,5.22
2022-11-15T14:36:05.068Z,5.28
2022-11-15T14:38:33.960Z,5.53
2022-11-15T14:41:02.559Z,5.75
2022-11-15T14:43:31.101Z,5.40
2022-11-15T14:46:00.202Z,5.68
2022-11-15T14:48:28.687Z,5.38
2022-11-15T14:50:57.420Z,6.18
2022-11-15T14:53:27.075Z,5.55
2022-11-15T14:55:55.393Z,5.90
2022-11-15T14:58:23.742Z,5.60
2022-11-15T15:00:52.429Z,5.63
2022-11-15T15:03:21.038Z,5.75
2022-11-15T15:05:49.728Z,6.35
2022-11-15T15:08:18.407Z,5.60
2022-11-15T15:10:48.757Z,6.35
2022-11-15T15:13:20.569Z,6.57
2022-11-15T15:15:50.251Z,6.40
2022-11-15T15:18:21.132Z,6.13
2022-11-15T15:20:56.664Z,6.47
2022-11-15T15:23:26.604Z,6.18
2022-11-15T15:25:56.645Z,6.55
2022-11-15T15:28:27.638Z,5.90
2022-11-15T15:30:59.964Z,6.27
2022-11-15T15:33:28.591Z,5.57
2022-11-15T15:35:57.208Z,7.37
2022-11-15T15:38:25.843Z,6.33
2022-11-15T15:40:55.675Z,6.63
2022-11-15T15:43:24.258Z,6.33
2022-11-15T15:45:52.896Z,6.17
2022-11-15T15:48:21.480Z,6.00
2022-11-15T15:50:50.346Z,5.97
2022-11-15T15:53:19.257Z,5.97
2022-11-15T15:55:47.851Z,5.90
2022-11-15T15:58:17.822Z,6.47
2022-11-15T16:00:46.095Z,6.00
2022-11-15T16:03:14.378Z,6.37
2022-11-15T16:05:43.003Z,8.27
2022-11-15T16:08:20.505Z,7.07
2022-11-15T16:10:49.397Z,5.90
2022-11-15T16:13:19.498Z,6.27
2022-11-15T16:15:52.580Z,6.30
2022-11-15T16:18:21.336Z,6.53
2022-11-15T16:20:53.091Z,6.60
2022-11-15T16:23:24.554Z,9.73
2022-11-15T16:25:56.535Z,7.47
2022-11-15T16:28:29.328Z,8.03
2022-11-15T16:31:08.070Z,6.50
2022-11-15T16:33:37.162Z,7.90
2022-11-15T16:36:07.741Z,6.63
2022-11-15T16:38:37.000Z,7.97
2022-11-15T16:41:05.861Z,7.50
2022-11-15T16:43:35.489Z,8.67
2022-11-15T16:46:15.110Z,8.77
2022-11-15T16:48:43.416Z,9.17
2022-11-15T16:51:12.042Z,10.57
2022-11-15T16:53:40.896Z,9.87
2022-11-15T16:56:24.114Z,10.07
2022-11-15T16:58:54.749Z,8.93
2022-11-15T17:01:26.412Z,9.67
2022-11-15T17:03:56.020Z,9.47
2022-11-15T17:06:25.957Z,9.53
2022-11-15T17:08:56.620Z,9.57
2022-11-15T17:11:25.211Z,9.80
2022-11-15T17:13:59.627Z,8.63
2022-11-15T17:16:28.354Z,8.53
2022-11-15T17:18:56.942Z,9.63
2022-11-15T17:21:33.423Z,9.70
2022-11-15T17:24:02.021Z,9.60
2022-11-15T17:26:33.978Z,9.10
2022-11-15T17:29:07.928Z,9.13
2022-11-15T17:31:37.162Z,9.47
2022-11-15T17:34:06.993Z,10.10
2022-11-15T17:36:36.478Z,11.60
2022-11-15T17:39:05.769Z,13.57
2022-11-15T17:41:34.353Z,12.70
2022-11-15T17:44:03.632Z,14.77
2022-11-15T17:46:36.379Z,15.40
2022-11-15T17:49:05.044Z,16.40
2022-11-15T17:51:34.105Z,17.73
2022-11-15T17:54:02.431Z,16.93
2022-11-15T17:56:31.881Z,17.93
2022-11-15T17:59:01.671Z,17.73
2022-11-15T18:01:31.992Z,16.80
2022-11-15T18:04:04.909Z,15.53
2022-11-15T18:06:35.552Z,14.17
2022-11-15T18:09:05.544Z,13.53
2022-11-15T18:11:38.430Z,14.70
2022-11-15T18:14:09.411Z,14.87
2022-11-15T18:16:40.263Z,17.13
2022-11-15T18:19:13.273Z,17.53
2022-11-15T18:21:59.184Z,19.17
2022-11-15T18:24:30.365Z,18.63
2022-11-15T18:27:00.151Z,18.57
2022-11-15T18:29:28.884Z,18.37
2022-11-15T18:31:57.538Z,17.67
2022-11-15T18:34:32.139Z,17.53
2022-11-15T18:37:00.979Z,18.97
2022-11-15T18:39:29.345Z,17.27
2022-11-15T18:41:57.962Z,18.00
2022-11-15T18:44:26.523Z,17.13
2022-11-15T18:46:54.801Z,18.20
2022-11-15T18:49:23.436Z,17.20
2022-11-15T18:51:53.072Z,19.27
2022-11-15T18:54:22.820Z,16.50
2022-11-15T18:56:53.909Z,17.03
2022-11-15T18:59:22.475Z,19.13
2022-11-15T19:01:52.195Z,18.37
2022-11-15T19:04:22.582Z,16.67
2022-11-15T19:06:53.928Z,17.30
2022-11-15T19:09:24.494Z,17.90
2022-11-15T19:11:53.075Z,17.67
2022-11-15T19:14:24.194Z,17.30
2022-11-15T19:16:54.623Z,18.53
2022-11-15T19:19:25.546Z,18.53
2022-11-15T19:21:57.066Z,18.50
2022-11-15T19:24:27.070Z,19.80
2022-11-15T19:26:55.926Z,19.37
2022-11-15T19:29:24.620Z,19.43
2022-11-15T19:31:53.250Z,21.73
2022-11-15T19:34:21.826Z,21.80
2022-11-15T19:36:50.415Z,20.07
2022-11-15T19:39:20.050Z,21.13
2022-11-15T19:41:50.025Z,25.27
2022-11-15T19:44:18.946Z,20.33
2022-11-15T19:46:47.417Z,28.73
2022-11-15T19:49:15.913Z,27.40
2022-11-15T19:51:45.236Z,25.30
2022-11-15T19:54:13.666Z,21.90
2022-11-15T19:56:43.371Z,22.80
2022-11-15T19:59:13.582Z,22.03
2022-11-15T20:01:42.672Z,23.03
2022-11-15T20:04:11.294Z,22.23
2022-11-15T20:06:42.470Z,20.47
2022-11-15T20:09:15.497Z,22.80
2022-11-15T20:11:45.681Z,22.00
2022-11-15T20:14:14.095Z,21.67
2022-11-15T20:16:43.611Z,22.37
2022-11-15T20:19:13.026Z,22.60
2022-11-15T20:21:41.669Z,22.00
2022-11-15T20:24:10.312Z,22.73
2022-11-15T20:26:39.341Z,24.30
2022-11-15T20:29:10.058Z,23.57
2022-11-15T20:31:38.645Z,23.23
2022-11-15T20:34:07.354Z,23.57
2022-11-15T20:36:35.613Z,22.50
2022-11-15T20:39:04.653Z,22.97
2022-11-15T20:41:33.231Z,21.47
2022-11-15T20:44:03.013Z,22.27
2022-11-15T20:46:32.732Z,19.23
2022-11-15T20:49:01.362Z,18.97
2022-11-15T20:51:29.914Z,18.23
2022-11-15T20:53:58.617Z,16.73
2022-11-15T20:56:27.189Z,16.03
2022-11-15T20:58:56.571Z,16.30
2022-11-15T21:01:25.569Z,17.03
2022-11-15T21:03:56.865Z,17.20
2022-11-15T21:06:27.136Z,18.70
2022-11-15T21:09:14.086Z,20.50
2022-11-15T21:12:00.449Z,20.60
2022-11-15T21:14:28.788Z,23.47
2022-11-15T21:16:57.497Z,26.63
2022-11-15T21:19:32.580Z,26.73
2022-11-15T21:22:05.673Z,28.73
2022-11-15T21:24:34.317Z,30.23
2022-11-15T21:27:03.337Z,29.83
2022-11-15T21:29:37.439Z,30.87
2022-11-15T21:32:08.235Z,30.47
2022-11-15T21:34:39.047Z,30.67
2022-11-15T21:37:07.944Z,31.53
2022-11-15T21:39:36.507Z,31.13
2022-11-15T21:42:06.072Z,30.13
2022-11-15T21:44:34.393Z,30.90
2022-11-15T21:47:02.753Z,29.77
2022-11-15T21:49:31.357Z,29.63
2022-11-15T21:52:01.321Z,28.83
2022-11-15T21:54:30.005Z,28.37
2022-11-15T21:56:58.642Z,27.13
2022-11-15T21:59:27.321Z,27.80
2022-11-15T22:02:13.622Z,27.97
2022-11-15T22:04:41.941Z,27.07
2022-11-15T22:07:11.615Z,26.97
2022-11-15T22:09:40.303Z,24.90
2022-11-15T22:12:08.616Z,25.70
2022-11-15T22:14:36.959Z,25.53
2022-11-15T22:17:05.573Z,26.27
2022-11-15T22:19:34.681Z,26.77
2022-11-15T22:22:03.340Z,25.90
2022-11-15T22:24:33.145Z,27.07
2022-11-15T22:27:01.738Z,25.50
2022-11-15T22:29:30.309Z,24.93
2022-11-15T22:31:58.891Z,23.53
2022-11-15T22:34:27.507Z,22.47
2022-11-15T22:37:19.988Z,23.50
2022-11-15T22:39:45.674Z,21.93
2022-11-15T22:42:15.634Z,21.57
2022-11-15T22:44:46.976Z,20.93
2022-11-15T22:47:15.254Z,20.17
2022-11-15T22:49:44.534Z,20.83
2022-11-15T22:52:13.658Z,20.00
2022-11-15T22:54:42.066Z,20.30
2022-11-15T22:57:11.736Z,20.37
2022-11-15T22:59:41.144Z,21.63
2022-11-15T23:02:09.860Z,21.40
2022-11-15T23:04:38.135Z,22.73
2022-11-15T23:07:06.752Z,23.13
2022-11-15T23:09:35.347Z,23.30
2022-11-15T23:12:21.193Z,23.60
2022-11-15T23:14:50.843Z,25.73
2022-11-15T23:17:19.530Z,25.53
2022-11-15T23:19:48.501Z,25.70
2022-11-15T23:22:34.213Z,26.37
2022-11-15T23:25:02.828Z,25.77
2022-11-15T23:27:31.366Z,25.83
2022-11-15T23:30:33.114Z,25.80
2022-11-15T23:33:19.287Z,24.77
2022-11-15T23:35:55.246Z,23.50
2022-11-15T23:38:23.509Z,24.97
2022-11-15T23:40:52.780Z,25.63
2022-11-15T23:43:21.840Z,24.33
2022-11-15T23:45:51.697Z,25.27
2022-11-15T23:48:20.316Z,25.33
2022-11-15T23:50:49.571Z,25.13
2022-11-15T23:53:18.286Z,24.30
2022-11-15T23:55:56.111Z,25.17
2022-11-15T23:58:24.748Z,22.03
